sensor_id;sensor_type;location;lat;lon;timestamp;pressure;altitude;pressure_sealevel;temperature;humidity
66385;BME280;53426;55.872;37.462;2023-02-19T00:01:16;97650.44;;;-5.93;68.76
66385;BME280;53426;55.872;37.462;2023-02-19T00:03:46;97665.78;;;-5.90;68.90
66385;BME280;53426;55.872;37.462;2023-02-19T00:09:31;97653.53;;;-5.86;69.11
66385;BME280;53426;55.872;37.462;2023-02-19T00:11:56;97610.19;;;-6.13;69.28
66385;BME280;53426;55.872;37.462;2023-02-19T00:14:23;97647.56;;;-5.87;69.12
66385;BME280;53426;55.872;37.462;2023-02-19T00:16:50;97626.66;;;-5.98;69.17
66385;BME280;53426;55.872;37.462;2023-02-19T00:19:18;97632.84;;;-5.85;69.30
66385;BME280;53426;55.872;37.462;2023-02-19T00:21:45;97589.44;;;-6.10;69.73
66385;BME280;53426;55.872;37.462;2023-02-19T00:24:12;97607.47;;;-6.10;69.58
66385;BME280;53426;55.872;37.462;2023-02-19T00:26:40;97637.34;;;-5.88;69.54
66385;BME280;53426;55.872;37.462;2023-02-19T00:29:07;97616.06;;;-5.92;69.60
66385;BME280;53426;55.872;37.462;2023-02-19T00:31:34;97589.38;;;-6.08;69.77
66385;BME280;53426;55.872;37.462;2023-02-19T00:34:03;97637.00;;;-5.82;69.61
66385;BME280;53426;55.872;37.462;2023-02-19T00:36:35;97583.09;;;-6.03;69.82
66385;BME280;53426;55.872;37.462;2023-02-19T00:39:03;97643.47;;;-5.74;69.73
66385;BME280;53426;55.872;37.462;2023-02-19T00:41:54;97575.81;;;-6.12;69.25
66385;BME280;53426;55.872;37.462;2023-02-19T00:44:23;97643.00;;;-5.82;69.47
66385;BME280;53426;55.872;37.462;2023-02-19T00:46:49;97578.47;;;-6.13;70.05
66385;BME280;53426;55.872;37.462;2023-02-19T00:49:20;97594.28;;;-6.04;69.62
66385;BME280;53426;55.872;37.462;2023-02-19T00:51:48;97601.50;;;-5.93;70.04
66385;BME280;53426;55.872;37.462;2023-02-19T00:54:14;97579.94;;;-6.26;70.09
66385;BME280;53426;55.872;37.462;2023-02-19T00:56:41;97590.50;;;-6.14;69.63
66385;BME280;53426;55.872;37.462;2023-02-19T00:59:07;97556.88;;;-6.28;69.85
66385;BME280;53426;55.872;37.462;2023-02-19T01:01:33;97599.00;;;-5.95;69.79
66385;BME280;53426;55.872;37.462;2023-02-19T01:04:25;97594.09;;;-5.83;69.85
66385;BME280;53426;55.872;37.462;2023-02-19T01:06:52;97570.06;;;-6.17;69.45
66385;BME280;53426;55.872;37.462;2023-02-19T01:09:19;97568.75;;;-6.08;69.12
66385;BME280;53426;55.872;37.462;2023-02-19T01:11:47;97530.88;;;-6.41;69.74
66385;BME280;53426;55.872;37.462;2023-02-19T01:14:16;97551.19;;;-6.17;69.36
66385;BME280;53426;55.872;37.462;2023-02-19T01:16:42;97556.84;;;-6.11;69.28
66385;BME280;53426;55.872;37.462;2023-02-19T01:19:12;97572.53;;;-5.98;69.42
66385;BME280;53426;55.872;37.462;2023-02-19T01:21:40;97572.84;;;-6.04;69.03
66385;BME280;53426;55.872;37.462;2023-02-19T01:24:06;97566.13;;;-6.07;69.37
66385;BME280;53426;55.872;37.462;2023-02-19T01:26:33;97562.41;;;-6.01;69.67
66385;BME280;53426;55.872;37.462;2023-02-19T01:29:02;97578.59;;;-5.99;69.60
66385;BME280;53426;55.872;37.462;2023-02-19T01:31:30;97568.00;;;-6.10;69.12
66385;BME280;53426;55.872;37.462;2023-02-19T01:33:58;97570.84;;;-6.16;69.21
66385;BME280;53426;55.872;37.462;2023-02-19T01:36:26;97555.28;;;-6.13;69.56
66385;BME280;53426;55.872;37.462;2023-02-19T01:38:53;97570.28;;;-6.04;69.36
66385;BME280;53426;55.872;37.462;2023-02-19T01:41:22;97536.25;;;-6.28;69.19
66385;BME280;53426;55.872;37.462;2023-02-19T01:46:53;97550.09;;;-6.30;69.59
66385;BME280;53426;55.872;37.462;2023-02-19T01:49:29;97548.00;;;-6.22;69.60
66385;BME280;53426;55.872;37.462;2023-02-19T01:51:59;97547.84;;;-6.19;69.40
66385;BME280;53426;55.872;37.462;2023-02-19T01:54:29;97556.56;;;-6.22;69.63
66385;BME280;53426;55.872;37.462;2023-02-19T01:56:58;97559.63;;;-6.32;69.57
66385;BME280;53426;55.872;37.462;2023-02-19T01:59:26;97562.16;;;-6.31;69.67
66385;BME280;53426;55.872;37.462;2023-02-19T02:01:52;97552.97;;;-6.37;69.42
66385;BME280;53426;55.872;37.462;2023-02-19T02:04:19;97547.09;;;-6.39;69.62
66385;BME280;53426;55.872;37.462;2023-02-19T02:09:18;97542.84;;;-6.40;70.02
66385;BME280;53426;55.872;37.462;2023-02-19T02:12:05;97554.88;;;-6.40;69.92
66385;BME280;53426;55.872;37.462;2023-02-19T02:14:37;97545.78;;;-6.30;69.79
66385;BME280;53426;55.872;37.462;2023-02-19T02:31:20;97545.53;;;-6.43;70.15
66385;BME280;53426;55.872;37.462;2023-02-19T02:34:05;97544.63;;;-6.42;69.49
66385;BME280;53426;55.872;37.462;2023-02-19T02:36:36;97561.38;;;-6.50;69.81
66385;BME280;53426;55.872;37.462;2023-02-19T02:39:06;97534.91;;;-6.54;69.88
66385;BME280;53426;55.872;37.462;2023-02-19T02:41:44;97537.50;;;-6.54;69.79
66385;BME280;53426;55.872;37.462;2023-02-19T02:44:11;97535.53;;;-6.49;69.84
66385;BME280;53426;55.872;37.462;2023-02-19T02:46:41;97539.22;;;-6.54;69.86
66385;BME280;53426;55.872;37.462;2023-02-19T02:49:20;97527.13;;;-6.52;70.33
66385;BME280;53426;55.872;37.462;2023-02-19T02:51:51;97531.09;;;-6.45;70.51
66385;BME280;53426;55.872;37.462;2023-02-19T02:54:28;97532.38;;;-6.37;70.72
66385;BME280;53426;55.872;37.462;2023-02-19T02:57:16;97527.63;;;-6.44;70.37
66385;BME280;53426;55.872;37.462;2023-02-19T02:59:50;97529.34;;;-6.45;70.13
66385;BME280;53426;55.872;37.462;2023-02-19T03:02:24;97525.09;;;-6.46;70.18
66385;BME280;53426;55.872;37.462;2023-02-19T03:05:12;97532.97;;;-6.49;70.53
66385;BME280;53426;55.872;37.462;2023-02-19T03:08:02;97527.81;;;-6.49;70.51
66385;BME280;53426;55.872;37.462;2023-02-19T03:10:37;97533.06;;;-6.50;70.41
66385;BME280;53426;55.872;37.462;2023-02-19T03:13:07;97546.75;;;-6.50;70.55
66385;BME280;53426;55.872;37.462;2023-02-19T03:16:01;97543.69;;;-6.58;70.26
66385;BME280;53426;55.872;37.462;2023-02-19T03:18:53;97548.50;;;-6.50;70.94
66385;BME280;53426;55.872;37.462;2023-02-19T03:21:42;97526.75;;;-6.62;70.73
66385;BME280;53426;55.872;37.462;2023-02-19T03:24:44;97523.72;;;-6.53;70.69
66385;BME280;53426;55.872;37.462;2023-02-19T03:27:31;97525.56;;;-6.55;70.34
66385;BME280;53426;55.872;37.462;2023-02-19T03:30:04;97495.88;;;-6.81;71.24
66385;BME280;53426;55.872;37.462;2023-02-19T03:32:41;97503.72;;;-6.65;71.55
66385;BME280;53426;55.872;37.462;2023-02-19T03:35:15;97509.56;;;-6.61;71.71
66385;BME280;53426;55.872;37.462;2023-02-19T03:37:53;97514.84;;;-6.64;70.67
66385;BME280;53426;55.872;37.462;2023-02-19T03:43:40;97506.28;;;-6.65;71.05
66385;BME280;53426;55.872;37.462;2023-02-19T03:46:30;97508.72;;;-6.62;70.85
66385;BME280;53426;55.872;37.462;2023-02-19T03:49:04;97505.56;;;-6.50;71.43
66385;BME280;53426;55.872;37.462;2023-02-19T03:51:40;97486.19;;;-6.57;70.59
66385;BME280;53426;55.872;37.462;2023-02-19T03:56:53;97497.97;;;-6.53;71.19
66385;BME280;53426;55.872;37.462;2023-02-19T04:00:08;97499.50;;;-6.49;70.84
66385;BME280;53426;55.872;37.462;2023-02-19T04:02:46;97507.53;;;-6.55;70.76
66385;BME280;53426;55.872;37.462;2023-02-19T04:08:44;97429.78;;;-6.79;70.69
66385;BME280;53426;55.872;37.462;2023-02-19T04:14:36;97498.53;;;-6.46;71.12
66385;BME280;53426;55.872;37.462;2023-02-19T04:20:09;97485.66;;;-6.46;71.15
66385;BME280;53426;55.872;37.462;2023-02-19T04:22:42;97484.38;;;-6.55;71.31
66385;BME280;53426;55.872;37.462;2023-02-19T04:25:34;97500.84;;;-6.59;71.35
66385;BME280;53426;55.872;37.462;2023-02-19T04:28:26;97484.66;;;-6.61;71.07
66385;BME280;53426;55.872;37.462;2023-02-19T04:30:52;97487.06;;;-6.58;71.21
66385;BME280;53426;55.872;37.462;2023-02-19T04:33:18;97486.19;;;-6.57;70.90
66385;BME280;53426;55.872;37.462;2023-02-19T04:35:44;97481.03;;;-6.57;71.06
66385;BME280;53426;55.872;37.462;2023-02-19T04:38:10;97482.25;;;-6.47;70.95
66385;BME280;53426;55.872;37.462;2023-02-19T04:40:36;97481.34;;;-6.46;70.77
66385;BME280;53426;55.872;37.462;2023-02-19T04:43:02;97481.28;;;-6.44;70.73
66385;BME280;53426;55.872;37.462;2023-02-19T04:45:28;97476.78;;;-6.41;70.91
66385;BME280;53426;55.872;37.462;2023-02-19T04:47:56;97468.78;;;-6.52;70.47
66385;BME280;53426;55.872;37.462;2023-02-19T04:50:22;97471.28;;;-6.50;71.32
66385;BME280;53426;55.872;37.462;2023-02-19T04:52:49;97486.56;;;-6.47;70.83
66385;BME280;53426;55.872;37.462;2023-02-19T04:55:15;97464.81;;;-6.59;71.12
66385;BME280;53426;55.872;37.462;2023-02-19T04:57:41;97461.34;;;-6.58;70.98
66385;BME280;53426;55.872;37.462;2023-02-19T05:00:08;97473.63;;;-6.46;70.59
66385;BME280;53426;55.872;37.462;2023-02-19T05:02:34;97479.66;;;-6.47;71.00
66385;BME280;53426;55.872;37.462;2023-02-19T05:05:00;97462.94;;;-6.55;70.83
66385;BME280;53426;55.872;37.462;2023-02-19T05:07:26;97467.81;;;-6.49;71.39
66385;BME280;53426;55.872;37.462;2023-02-19T05:09:52;97475.34;;;-6.46;70.97
66385;BME280;53426;55.872;37.462;2023-02-19T05:12:18;97468.47;;;-6.46;71.42
66385;BME280;53426;55.872;37.462;2023-02-19T05:14:44;97467.41;;;-6.42;71.02
66385;BME280;53426;55.872;37.462;2023-02-19T05:17:10;97464.81;;;-6.42;71.23
66385;BME280;53426;55.872;37.462;2023-02-19T05:19:36;97473.03;;;-6.33;70.84
66385;BME280;53426;55.872;37.462;2023-02-19T05:22:02;97461.06;;;-6.35;71.51
66385;BME280;53426;55.872;37.462;2023-02-19T05:24:52;97458.19;;;-6.28;71.20
66385;BME280;53426;55.872;37.462;2023-02-19T05:27:21;97428.34;;;-6.50;70.60
66385;BME280;53426;55.872;37.462;2023-02-19T05:29:46;97431.97;;;-6.37;70.80
66385;BME280;53426;55.872;37.462;2023-02-19T05:32:38;97459.06;;;-6.12;70.47
66385;BME280;53426;55.872;37.462;2023-02-19T05:35:04;97447.19;;;-6.32;70.71
66385;BME280;53426;55.872;37.462;2023-02-19T05:37:30;97449.31;;;-6.23;70.46
66385;BME280;53426;55.872;37.462;2023-02-19T05:39:56;97416.28;;;-6.32;70.53
66385;BME280;53426;55.872;37.462;2023-02-19T05:42:47;97450.88;;;-6.03;70.54
66385;BME280;53426;55.872;37.462;2023-02-19T05:45:13;97452.59;;;-6.04;70.75
66385;BME280;53426;55.872;37.462;2023-02-19T05:47:38;97437.09;;;-6.19;70.94
66385;BME280;53426;55.872;37.462;2023-02-19T05:50:05;97443.94;;;-6.18;70.36
66385;BME280;53426;55.872;37.462;2023-02-19T05:52:37;97431.59;;;-6.29;70.98
66385;BME280;53426;55.872;37.462;2023-02-19T05:58:37;97446.59;;;-5.87;70.28
66385;BME280;53426;55.872;37.462;2023-02-19T06:04:23;97417.94;;;-6.31;70.11
66385;BME280;53426;55.872;37.462;2023-02-19T06:06:49;97431.03;;;-6.18;69.73
66385;BME280;53426;55.872;37.462;2023-02-19T06:09:18;97451.97;;;-5.92;69.49
66385;BME280;53426;55.872;37.462;2023-02-19T06:11:45;97438.75;;;-6.01;69.99
66385;BME280;53426;55.872;37.462;2023-02-19T06:14:12;97446.31;;;-5.98;69.38
66385;BME280;53426;55.872;37.462;2023-02-19T06:17:04;97444.91;;;-5.88;69.09
66385;BME280;53426;55.872;37.462;2023-02-19T06:19:31;97447.16;;;-5.98;68.88
66385;BME280;53426;55.872;37.462;2023-02-19T06:21:57;97440.06;;;-5.94;69.60
66385;BME280;53426;55.872;37.462;2023-02-19T06:24:24;97404.53;;;-6.20;68.96
66385;BME280;53426;55.872;37.462;2023-02-19T06:26:53;97417.63;;;-6.25;69.39
66385;BME280;53426;55.872;37.462;2023-02-19T06:29:30;97402.66;;;-6.34;69.55
66385;BME280;53426;55.872;37.462;2023-02-19T06:31:59;97431.66;;;-6.13;69.27
66385;BME280;53426;55.872;37.462;2023-02-19T06:34:25;97431.25;;;-6.06;69.42
66385;BME280;53426;55.872;37.462;2023-02-19T06:36:51;97433.91;;;-6.07;69.16
66385;BME280;53426;55.872;37.462;2023-02-19T06:39:17;97450.72;;;-6.00;69.25
66385;BME280;53426;55.872;37.462;2023-02-19T06:41:43;97403.03;;;-6.24;69.61
66385;BME280;53426;55.872;37.462;2023-02-19T06:44:09;97422.22;;;-5.97;69.36
66385;BME280;53426;55.872;37.462;2023-02-19T06:46:35;97430.47;;;-5.75;69.17
66385;BME280;53426;55.872;37.462;2023-02-19T06:49:03;97433.44;;;-5.67;69.00
66385;BME280;53426;55.872;37.462;2023-02-19T06:51:29;97420.34;;;-5.62;68.53
66385;BME280;53426;55.872;37.462;2023-02-19T06:54:00;97430.22;;;-5.70;67.87
66385;BME280;53426;55.872;37.462;2023-02-19T06:56:33;97417.50;;;-5.73;67.93
66385;BME280;53426;55.872;37.462;2023-02-19T06:59:02;97407.84;;;-5.70;68.01
66385;BME280;53426;55.872;37.462;2023-02-19T07:01:36;97403.63;;;-5.55;68.61
66385;BME280;53426;55.872;37.462;2023-02-19T07:04:05;97396.97;;;-5.43;68.06
66385;BME280;53426;55.872;37.462;2023-02-19T07:06:32;97393.56;;;-5.60;68.00
66385;BME280;53426;55.872;37.462;2023-02-19T07:08:58;97394.31;;;-5.42;67.60
66385;BME280;53426;55.872;37.462;2023-02-19T07:11:25;97409.63;;;-5.39;67.70
66385;BME280;53426;55.872;37.462;2023-02-19T07:13:57;97414.13;;;-5.42;67.33
66385;BME280;53426;55.872;37.462;2023-02-19T07:16:25;97404.38;;;-5.37;67.62
66385;BME280;53426;55.872;37.462;2023-02-19T07:18:56;97414.75;;;-5.23;66.86
66385;BME280;53426;55.872;37.462;2023-02-19T07:21:23;97373.13;;;-5.47;67.17
66385;BME280;53426;55.872;37.462;2023-02-19T07:27:30;97399.41;;;-5.40;67.60
66385;BME280;53426;55.872;37.462;2023-02-19T07:29:56;97355.91;;;-5.46;67.56
66385;BME280;53426;55.872;37.462;2023-02-19T07:32:42;97372.34;;;-5.49;67.11
66385;BME280;53426;55.872;37.462;2023-02-19T07:35:12;97353.56;;;-5.67;66.74
66385;BME280;53426;55.872;37.462;2023-02-19T07:37:40;97378.00;;;-5.42;66.66
66385;BME280;53426;55.872;37.462;2023-02-19T07:40:06;97384.66;;;-5.38;66.89
66385;BME280;53426;55.872;37.462;2023-02-19T07:42:32;97376.78;;;-5.35;67.03
66385;BME280;53426;55.872;37.462;2023-02-19T07:45:01;97363.53;;;-5.61;67.24
66385;BME280;53426;55.872;37.462;2023-02-19T07:47:35;97370.53;;;-5.31;67.84
66385;BME280;53426;55.872;37.462;2023-02-19T07:50:01;97376.69;;;-5.18;67.46
66385;BME280;53426;55.872;37.462;2023-02-19T07:52:27;97347.91;;;-5.58;66.81
66385;BME280;53426;55.872;37.462;2023-02-19T07:58:19;97376.00;;;-5.37;67.43
66385;BME280;53426;55.872;37.462;2023-02-19T08:00:48;97348.06;;;-5.45;67.10
66385;BME280;53426;55.872;37.462;2023-02-19T08:03:14;97368.94;;;-5.34;66.47
66385;BME280;53426;55.872;37.462;2023-02-19T08:05:41;97369.03;;;-5.35;66.73
66385;BME280;53426;55.872;37.462;2023-02-19T08:11:01;97346.66;;;-5.35;66.44
66385;BME280;53426;55.872;37.462;2023-02-19T08:17:03;97351.38;;;-5.27;65.98
66385;BME280;53426;55.872;37.462;2023-02-19T08:19:54;97364.53;;;-5.32;65.73
66385;BME280;53426;55.872;37.462;2023-02-19T08:22:20;97355.38;;;-5.22;66.88
66385;BME280;53426;55.872;37.462;2023-02-19T08:24:59;97351.31;;;-5.26;66.39
66385;BME280;53426;55.872;37.462;2023-02-19T08:27:25;97357.00;;;-5.05;66.24
66385;BME280;53426;55.872;37.462;2023-02-19T08:29:51;97336.31;;;-5.19;66.24
66385;BME280;53426;55.872;37.462;2023-02-19T08:32:17;97363.34;;;-5.26;66.06
66385;BME280;53426;55.872;37.462;2023-02-19T08:34:43;97368.59;;;-5.28;66.38
66385;BME280;53426;55.872;37.462;2023-02-19T08:37:09;97346.22;;;-5.27;66.47
66385;BME280;53426;55.872;37.462;2023-02-19T08:39:35;97347.13;;;-5.28;66.34
66385;BME280;53426;55.872;37.462;2023-02-19T08:42:00;97332.66;;;-5.15;66.13
66385;BME280;53426;55.872;37.462;2023-02-19T08:44:26;97351.72;;;-5.33;65.95
66385;BME280;53426;55.872;37.462;2023-02-19T08:46:52;97353.63;;;-5.21;66.34
66385;BME280;53426;55.872;37.462;2023-02-19T08:49:18;97346.53;;;-5.02;65.70
66385;BME280;53426;55.872;37.462;2023-02-19T08:51:44;97348.94;;;-4.85;65.29
66385;BME280;53426;55.872;37.462;2023-02-19T08:54:09;97344.13;;;-4.91;64.70
66385;BME280;53426;55.872;37.462;2023-02-19T08:56:35;97331.03;;;-5.02;64.78
66385;BME280;53426;55.872;37.462;2023-02-19T08:59:01;97336.88;;;-5.14;64.57
66385;BME280;53426;55.872;37.462;2023-02-19T09:01:27;97323.69;;;-4.94;65.27
66385;BME280;53426;55.872;37.462;2023-02-19T09:03:53;97330.38;;;-5.06;64.40
66385;BME280;53426;55.872;37.462;2023-02-19T09:06:19;97327.47;;;-5.15;64.91
66385;BME280;53426;55.872;37.462;2023-02-19T09:08:46;97333.03;;;-5.07;65.35
66385;BME280;53426;55.872;37.462;2023-02-19T09:11:12;97328.75;;;-5.22;65.19
66385;BME280;53426;55.872;37.462;2023-02-19T09:13:38;97325.50;;;-5.26;65.13
66385;BME280;53426;55.872;37.462;2023-02-19T09:16:04;97344.22;;;-5.22;65.16
66385;BME280;53426;55.872;37.462;2023-02-19T09:18:32;97318.72;;;-5.13;65.45
66385;BME280;53426;55.872;37.462;2023-02-19T09:21:03;97315.56;;;-5.18;64.75
66385;BME280;53426;55.872;37.462;2023-02-19T09:23:32;97315.00;;;-5.23;65.79
66385;BME280;53426;55.872;37.462;2023-02-19T09:25:59;97302.78;;;-5.19;65.26
66385;BME280;53426;55.872;37.462;2023-02-19T09:28:28;97315.91;;;-5.08;65.53
66385;BME280;53426;55.872;37.462;2023-02-19T09:31:06;97280.63;;;-5.23;66.01
66385;BME280;53426;55.872;37.462;2023-02-19T09:33:32;97306.84;;;-5.15;65.57
66385;BME280;53426;55.872;37.462;2023-02-19T09:35:58;97306.00;;;-5.16;65.09
66385;BME280;53426;55.872;37.462;2023-02-19T09:38:26;97291.19;;;-5.12;65.31
66385;BME280;53426;55.872;37.462;2023-02-19T09:40:52;97265.78;;;-5.34;65.33
66385;BME280;53426;55.872;37.462;2023-02-19T09:43:20;97304.44;;;-5.18;65.17
66385;BME280;53426;55.872;37.462;2023-02-19T09:45:48;97278.31;;;-5.28;64.96
66385;BME280;53426;55.872;37.462;2023-02-19T09:49:38;97302.59;;;-5.16;65.57
66385;BME280;53426;55.872;37.462;2023-02-19T09:51:41;97280.69;;;-5.39;65.79
66385;BME280;53426;55.872;37.462;2023-02-19T09:54:26;97282.88;;;-5.17;66.67
66385;BME280;53426;55.872;37.462;2023-02-19T09:56:59;97289.56;;;-4.99;66.45
66385;BME280;53426;55.872;37.462;2023-02-19T09:59:55;97267.13;;;-5.13;65.86
66385;BME280;53426;55.872;37.462;2023-02-19T10:02:26;97287.25;;;-5.03;65.92
66385;BME280;53426;55.872;37.462;2023-02-19T10:04:54;97282.38;;;-5.08;65.67
66385;BME280;53426;55.872;37.462;2023-02-19T10:07:23;97262.00;;;-5.28;65.85
66385;BME280;53426;55.872;37.462;2023-02-19T10:09:57;97283.44;;;-5.12;65.56
66385;BME280;53426;55.872;37.462;2023-02-19T10:12:33;97240.66;;;-5.30;65.39
66385;BME280;53426;55.872;37.462;2023-02-19T10:15:13;97243.19;;;-5.15;65.34
66385;BME280;53426;55.872;37.462;2023-02-19T10:17:41;97267.59;;;-4.76;65.07
66385;BME280;53426;55.872;37.462;2023-02-19T10:20:15;97275.06;;;-4.57;65.29
66385;BME280;53426;55.872;37.462;2023-02-19T10:23:04;97274.25;;;-4.44;64.51
66385;BME280;53426;55.872;37.462;2023-02-19T10:25:33;97264.72;;;-4.57;64.54
66385;BME280;53426;55.872;37.462;2023-02-19T10:28:00;97291.66;;;-4.61;63.73
66385;BME280;53426;55.872;37.462;2023-02-19T10:30:33;97286.84;;;-4.82;64.66
66385;BME280;53426;55.872;37.462;2023-02-19T10:33:09;97238.19;;;-5.18;64.40
66385;BME280;53426;55.872;37.462;2023-02-19T10:35:38;97281.44;;;-5.07;65.02
66385;BME280;53426;55.872;37.462;2023-02-19T10:38:46;97279.31;;;-5.00;65.19
66385;BME280;53426;55.872;37.462;2023-02-19T10:41:17;97292.53;;;-4.91;64.95
66385;BME280;53426;55.872;37.462;2023-02-19T10:46:50;97299.69;;;-4.66;64.56
66385;BME280;53426;55.872;37.462;2023-02-19T10:49:25;97243.44;;;-4.75;63.75
66385;BME280;53426;55.872;37.462;2023-02-19T10:52:26;97288.63;;;-4.40;63.64
66385;BME280;53426;55.872;37.462;2023-02-19T10:55:12;97244.28;;;-4.60;64.13
66385;BME280;53426;55.872;37.462;2023-02-19T11:07:48;97261.06;;;-4.39;63.81
66385;BME280;53426;55.872;37.462;2023-02-19T11:20:27;97261.59;;;-4.20;63.08
66385;BME280;53426;55.872;37.462;2023-02-19T11:23:13;97249.16;;;-4.28;63.27
66385;BME280;53426;55.872;37.462;2023-02-19T11:25:45;97252.69;;;-4.02;63.02
66385;BME280;53426;55.872;37.462;2023-02-19T11:31:13;97239.94;;;-3.91;61.98
66385;BME280;53426;55.872;37.462;2023-02-19T11:40:11;97217.31;;;-4.28;63.07
66385;BME280;53426;55.872;37.462;2023-02-19T11:42:48;97263.59;;;-3.97;62.94
66385;BME280;53426;55.872;37.462;2023-02-19T11:45:51;97252.25;;;-4.08;62.98
66385;BME280;53426;55.872;37.462;2023-02-19T11:48:23;97252.66;;;-4.43;64.01
66385;BME280;53426;55.872;37.462;2023-02-19T12:00:17;97237.81;;;-4.68;63.41
66385;BME280;53426;55.872;37.462;2023-02-19T12:11:10;97249.25;;;-4.86;63.05
66385;BME280;53426;55.872;37.462;2023-02-19T12:14:03;97245.91;;;-4.88;63.43
66385;BME280;53426;55.872;37.462;2023-02-19T12:17:11;97234.66;;;-4.73;63.35
66385;BME280;53426;55.872;37.462;2023-02-19T12:22:31;97247.50;;;-4.57;62.98
66385;BME280;53426;55.872;37.462;2023-02-19T12:31:06;97253.66;;;-4.74;63.09
66385;BME280;53426;55.872;37.462;2023-02-19T12:33:50;97230.25;;;-4.71;63.64
66385;BME280;53426;55.872;37.462;2023-02-19T12:39:22;97249.78;;;-4.81;63.80
66385;BME280;53426;55.872;37.462;2023-02-19T12:45:30;97244.44;;;-4.92;64.34
66385;BME280;53426;55.872;37.462;2023-02-19T12:48:53;97242.84;;;-4.94;64.65
66385;BME280;53426;55.872;37.462;2023-02-19T12:51:46;97238.09;;;-4.86;65.21
66385;BME280;53426;55.872;37.462;2023-02-19T12:54:15;97246.75;;;-4.73;65.12
66385;BME280;53426;55.872;37.462;2023-02-19T12:56:58;97225.44;;;-4.91;65.22
66385;BME280;53426;55.872;37.462;2023-02-19T13:19:11;97225.06;;;-4.85;65.45
66385;BME280;53426;55.872;37.462;2023-02-19T13:29:19;97242.88;;;-4.80;65.78
66385;BME280;53426;55.872;37.462;2023-02-19T13:32:20;97246.94;;;-4.76;65.85
66385;BME280;53426;55.872;37.462;2023-02-19T13:37:49;97232.59;;;-4.96;65.97
66385;BME280;53426;55.872;37.462;2023-02-19T13:42:56;97231.75;;;-5.11;66.82
66385;BME280;53426;55.872;37.462;2023-02-19T13:45:29;97240.97;;;-5.07;66.51
66385;BME280;53426;55.872;37.462;2023-02-19T13:48:12;97227.16;;;-5.20;67.16
66385;BME280;53426;55.872;37.462;2023-02-19T13:50:38;97214.47;;;-5.09;67.29
66385;BME280;53426;55.872;37.462;2023-02-19T13:58:56;97237.78;;;-4.96;66.95
66385;BME280;53426;55.872;37.462;2023-02-19T14:04:44;97230.97;;;-4.97;68.11
66385;BME280;53426;55.872;37.462;2023-02-19T14:14:48;97220.66;;;-4.97;67.78
66385;BME280;53426;55.872;37.462;2023-02-19T14:17:41;97216.50;;;-4.99;67.14
66385;BME280;53426;55.872;37.462;2023-02-19T14:22:47;97210.78;;;-5.04;67.29
66385;BME280;53426;55.872;37.462;2023-02-19T14:25:42;97222.84;;;-5.05;67.19
66385;BME280;53426;55.872;37.462;2023-02-19T14:33:10;97201.72;;;-5.26;67.14
66385;BME280;53426;55.872;37.462;2023-02-19T14:35:40;97219.88;;;-5.13;67.58
66385;BME280;53426;55.872;37.462;2023-02-19T14:38:47;97222.47;;;-5.13;67.70
66385;BME280;53426;55.872;37.462;2023-02-19T14:41:16;97220.06;;;-5.16;67.94
66385;BME280;53426;55.872;37.462;2023-02-19T14:43:45;97211.59;;;-5.18;68.18
66385;BME280;53426;55.872;37.462;2023-02-19T14:46:36;97199.78;;;-5.22;67.75
66385;BME280;53426;55.872;37.462;2023-02-19T14:49:12;97216.16;;;-5.23;68.09
66385;BME280;53426;55.872;37.462;2023-02-19T14:51:42;97196.81;;;-5.30;68.26
66385;BME280;53426;55.872;37.462;2023-02-19T14:54:15;97211.94;;;-5.24;68.38
66385;BME280;53426;55.872;37.462;2023-02-19T14:56:44;97190.16;;;-5.34;68.40
66385;BME280;53426;55.872;37.462;2023-02-19T15:02:42;97194.59;;;-5.22;67.82
66385;BME280;53426;55.872;37.462;2023-02-19T15:05:15;97216.78;;;-5.34;69.15
66385;BME280;53426;55.872;37.462;2023-02-19T15:07:41;97182.66;;;-5.53;69.00
66385;BME280;53426;55.872;37.462;2023-02-19T15:10:14;97196.59;;;-5.41;69.02
66385;BME280;53426;55.872;37.462;2023-02-19T15:15:44;97169.78;;;-5.53;69.27
66385;BME280;53426;55.872;37.462;2023-02-19T15:18:18;97200.13;;;-5.28;69.17
66385;BME280;53426;55.872;37.462;2023-02-19T15:20:44;97192.16;;;-5.39;69.65
66385;BME280;53426;55.872;37.462;2023-02-19T15:23:17;97208.41;;;-5.23;69.44
66385;BME280;53426;55.872;37.462;2023-02-19T15:25:45;97168.06;;;-5.38;69.14
66385;BME280;53426;55.872;37.462;2023-02-19T15:36:30;97193.56;;;-5.34;69.69
66385;BME280;53426;55.872;37.462;2023-02-19T15:39:11;97186.84;;;-5.36;70.03
66385;BME280;53426;55.872;37.462;2023-02-19T15:42:22;97213.56;;;-5.23;70.08
66385;BME280;53426;55.872;37.462;2023-02-19T15:45:22;97167.69;;;-5.46;69.58
66385;BME280;53426;55.872;37.462;2023-02-19T15:48:53;97195.16;;;-5.31;69.74
66385;BME280;53426;55.872;37.462;2023-02-19T15:51:11;97170.06;;;-5.43;69.27
66385;BME280;53426;55.872;37.462;2023-02-19T15:53:48;97216.28;;;-5.25;69.08
66385;BME280;53426;55.872;37.462;2023-02-19T15:59:42;97182.69;;;-5.39;68.59
66385;BME280;53426;55.872;37.462;2023-02-19T16:02:12;97163.72;;;-5.52;68.86
66385;BME280;53426;55.872;37.462;2023-02-19T16:05:03;97159.13;;;-5.47;69.22
66385;BME280;53426;55.872;37.462;2023-02-19T16:10:57;97172.03;;;-5.33;68.79
66385;BME280;53426;55.872;37.462;2023-02-19T16:13:31;97167.34;;;-5.26;69.13
66385;BME280;53426;55.872;37.462;2023-02-19T16:18:27;97177.47;;;-5.23;69.35
66385;BME280;53426;55.872;37.462;2023-02-19T16:20:53;97180.63;;;-5.04;69.54
66385;BME280;53426;55.872;37.462;2023-02-19T16:23:40;97183.22;;;-5.04;69.32
66385;BME280;53426;55.872;37.462;2023-02-19T16:27:06;97183.50;;;-4.94;69.26
66385;BME280;53426;55.872;37.462;2023-02-19T16:29:28;97155.75;;;-5.05;69.21
66385;BME280;53426;55.872;37.462;2023-02-19T16:32:03;97136.41;;;-5.26;69.18
66385;BME280;53426;55.872;37.462;2023-02-19T16:37:40;97172.91;;;-4.90;69.21
66385;BME280;53426;55.872;37.462;2023-02-19T16:45:27;97179.72;;;-5.03;69.57
66385;BME280;53426;55.872;37.462;2023-02-19T16:47:59;97173.81;;;-4.91;69.54
66385;BME280;53426;55.872;37.462;2023-02-19T16:54:34;97171.63;;;-4.83;69.58
66385;BME280;53426;55.872;37.462;2023-02-19T16:57:01;97168.84;;;-4.80;69.84
66385;BME280;53426;55.872;37.462;2023-02-19T16:59:27;97151.41;;;-4.90;69.55